createdAt,value
2023-04-29T00:00:02.076Z,7.95
2023-04-29T00:02:31.874Z,7.91
2023-04-29T00:05:01.889Z,7.89
2023-04-29T00:07:29.641Z,7.85
2023-04-29T00:09:57.215Z,7.80
2023-04-29T00:12:24.830Z,7.82
2023-04-29T00:14:52.509Z,7.83
2023-04-29T00:17:20.132Z,7.82
2023-04-29T00:19:48.027Z,7.79
2023-04-29T00:22:17.559Z,7.76
2023-04-29T00:24:45.184Z,7.75
2023-04-29T00:27:12.888Z,7.77
2023-04-29T00:29:40.492Z,7.72
2023-04-29T00:32:08.186Z,7.69
2023-04-29T00:34:35.904Z,7.59
2023-04-29T00:37:04.077Z,7.49
2023-04-29T00:39:33.036Z,7.47
2023-04-29T00:42:01.327Z,7.41
2023-04-29T00:44:28.967Z,7.35
2023-04-29T00:46:56.560Z,7.29
2023-04-29T00:49:24.174Z,7.29
2023-04-29T00:51:52.018Z,7.33
2023-04-29T00:54:19.634Z,7.31
2023-04-29T00:56:48.990Z,7.29
2023-04-29T00:59:17.208Z,7.24
2023-04-29T01:01:45.665Z,7.22
2023-04-29T01:04:13.692Z,7.19
2023-04-29T01:06:57.158Z,7.14
2023-04-29T01:09:41.138Z,7.13
2023-04-29T01:12:21.490Z,7.15
2023-04-29T01:14:55.708Z,7.15
2023-04-29T01:17:26.744Z,7.11
2023-04-29T01:19:56.977Z,7.14
2023-04-29T01:22:24.781Z,7.19
2023-04-29T01:24:54.985Z,7.24
2023-04-29T01:27:30.591Z,7.26
2023-04-29T01:30:03.806Z,7.27
2023-04-29T01:32:42.812Z,7.21
2023-04-29T01:35:19.157Z,7.18
2023-04-29T01:37:57.860Z,7.21
2023-04-29T01:40:35.106Z,7.19
2023-04-29T01:43:04.389Z,7.19
2023-04-29T01:45:35.083Z,7.18
2023-04-29T01:48:04.750Z,7.13
2023-04-29T01:50:32.599Z,7.13
2023-04-29T01:53:00.411Z,7.17
2023-04-29T01:55:29.394Z,7.17
2023-04-29T01:57:57.017Z,7.17
2023-04-29T02:00:24.954Z,7.20
2023-04-29T02:02:52.613Z,7.19
2023-04-29T02:05:20.217Z,7.19
2023-04-29T02:07:47.797Z,7.21
2023-04-29T02:10:15.581Z,7.18
2023-04-29T02:12:44.650Z,7.18
2023-04-29T02:15:12.720Z,7.20
2023-04-29T02:17:41.072Z,7.21
2023-04-29T02:20:10.181Z,7.21
2023-04-29T02:22:37.793Z,7.20
2023-04-29T02:25:06.506Z,7.20
2023-04-29T02:27:34.066Z,7.19
2023-04-29T02:30:04.731Z,7.17
2023-04-29T02:32:32.556Z,7.21
2023-04-29T02:35:00.157Z,7.27
2023-04-29T02:37:28.576Z,7.31
2023-04-29T02:39:56.181Z,7.30
2023-04-29T02:42:23.802Z,7.29
2023-04-29T02:44:51.406Z,7.32
2023-04-29T02:47:20.378Z,7.32
2023-04-29T02:49:47.980Z,7.31
2023-04-29T02:52:16.902Z,7.30
2023-04-29T02:54:45.070Z,7.29
2023-04-29T02:57:12.775Z,7.31
2023-04-29T02:59:40.382Z,7.32
2023-04-29T03:02:08.035Z,7.29
2023-04-29T03:04:37.042Z,7.31
2023-04-29T03:07:05.367Z,7.31
2023-04-29T03:09:32.967Z,7.35
2023-04-29T03:12:01.039Z,7.38
2023-04-29T03:14:28.670Z,7.40
2023-04-29T03:16:56.935Z,7.40
2023-04-29T03:19:24.680Z,7.38
2023-04-29T03:21:54.175Z,7.38
2023-04-29T03:24:22.077Z,7.35
2023-04-29T03:26:49.691Z,7.39
2023-04-29T03:29:17.350Z,7.36
2023-04-29T03:31:45.134Z,7.39
2023-04-29T03:34:14.463Z,7.39
2023-04-29T03:36:42.035Z,7.39
2023-04-29T03:39:11.836Z,7.40
2023-04-29T03:41:39.681Z,7.39
2023-04-29T03:44:07.360Z,7.40
2023-04-29T03:46:35.088Z,7.40
2023-04-29T03:49:02.872Z,7.40
2023-04-29T03:51:30.717Z,7.38
2023-04-29T03:53:59.283Z,7.41
2023-04-29T03:56:28.301Z,7.40
2023-04-29T03:58:55.879Z,7.40
2023-04-29T04:01:23.539Z,7.39
2023-04-29T04:03:51.270Z,7.42
2023-04-29T04:06:19.177Z,7.39
2023-04-29T04:08:46.821Z,7.41
2023-04-29T04:11:15.186Z,7.41
2023-04-29T04:13:44.507Z,7.43
2023-04-29T04:16:12.503Z,7.47
2023-04-29T04:18:40.486Z,7.51
2023-04-29T04:21:08.590Z,7.49
2023-04-29T04:23:36.436Z,7.54
2023-04-29T04:26:04.050Z,7.54
2023-04-29T04:28:31.934Z,7.55
2023-04-29T04:31:00.975Z,7.58
2023-04-29T04:33:28.634Z,7.65
2023-04-29T04:35:56.886Z,7.60
2023-04-29T04:38:25.527Z,7.66
2023-04-29T04:40:53.211Z,7.65
2023-04-29T04:43:21.147Z,7.67
2023-04-29T04:45:48.807Z,7.70
2023-04-29T04:48:17.802Z,7.75
2023-04-29T04:50:45.457Z,7.72
2023-04-29T04:53:13.509Z,7.71
2023-04-29T04:55:41.147Z,7.74
2023-04-29T04:58:08.765Z,7.70
2023-04-29T05:00:36.353Z,7.77
2023-04-29T05:03:04.429Z,7.79
2023-04-29T05:05:34.465Z,7.78
2023-04-29T05:08:02.845Z,7.79
2023-04-29T05:10:30.551Z,7.85
2023-04-29T05:12:58.210Z,7.88
2023-04-29T05:15:27.434Z,7.96
2023-04-29T05:17:55.542Z,8.07
2023-04-29T05:20:23.250Z,8.12
2023-04-29T05:22:52.267Z,8.20
2023-04-29T05:25:20.400Z,8.29
2023-04-29T05:27:48.055Z,8.31
2023-04-29T05:30:15.904Z,8.37
2023-04-29T05:32:43.748Z,8.52
2023-04-29T05:35:13.771Z,8.61
2023-04-29T05:37:41.464Z,8.62
2023-04-29T05:40:11.519Z,8.69
2023-04-29T05:42:39.150Z,8.82
2023-04-29T05:45:07.910Z,8.93
2023-04-29T05:47:35.708Z,8.95
2023-04-29T05:50:03.358Z,8.95
2023-04-29T05:52:32.034Z,8.97
2023-04-29T05:55:01.037Z,9.07
2023-04-29T05:57:33.268Z,9.25
2023-04-29T06:00:01.209Z,9.35
2023-04-29T06:02:29.008Z,9.42
2023-04-29T06:04:57.513Z,9.36
2023-04-29T06:07:26.634Z,9.38
2023-04-29T06:09:56.877Z,9.50
2023-04-29T06:12:24.530Z,9.55
2023-04-29T06:14:53.967Z,9.60
2023-04-29T06:17:21.729Z,9.78
2023-04-29T06:19:49.374Z,9.90
2023-04-29T06:22:17.578Z,9.95
2023-04-29T06:24:45.287Z,9.92
2023-04-29T06:27:15.120Z,9.90
2023-04-29T06:29:43.135Z,9.89
2023-04-29T06:32:13.999Z,9.77
2023-04-29T06:34:41.743Z,9.78
2023-04-29T06:37:09.322Z,9.77
2023-04-29T06:39:36.966Z,9.76
2023-04-29T06:42:05.049Z,9.78
2023-04-29T06:44:32.689Z,9.68
2023-04-29T06:47:00.657Z,9.78
2023-04-29T06:49:29.742Z,9.72
2023-04-29T06:51:57.525Z,9.87
2023-04-29T06:54:25.609Z,9.84
2023-04-29T06:56:53.199Z,10.03
2023-04-29T06:59:21.211Z,10.38
2023-04-29T07:01:49.915Z,10.58
2023-04-29T07:04:17.777Z,10.76
2023-04-29T07:06:47.324Z,10.85
2023-04-29T07:09:15.417Z,10.96
2023-04-29T07:11:43.350Z,11.20
2023-04-29T07:14:10.996Z,11.23
2023-04-29T07:16:38.662Z,11.57
2023-04-29T07:19:06.297Z,11.79
2023-04-29T07:21:34.124Z,11.99
2023-04-29T07:24:04.958Z,12.06
2023-04-29T07:26:32.732Z,12.20
2023-04-29T07:29:00.353Z,12.29
2023-04-29T07:31:28.473Z,12.44
2023-04-29T07:33:57.194Z,12.54
2023-04-29T07:36:24.848Z,12.50
2023-04-29T07:38:53.218Z,12.40
2023-04-29T07:41:22.355Z,12.37
2023-04-29T07:43:49.961Z,12.28
2023-04-29T07:46:18.290Z,12.53
2023-04-29T07:48:46.186Z,12.67
2023-04-29T07:51:15.178Z,12.66
2023-04-29T07:53:43.332Z,12.68
2023-04-29T07:56:11.235Z,12.45
2023-04-29T07:58:40.244Z,12.57
2023-04-29T08:01:08.706Z,12.57
2023-04-29T08:03:38.858Z,12.76
2023-04-29T08:06:08.781Z,12.86
2023-04-29T08:08:36.725Z,13.10
2023-04-29T08:11:04.558Z,13.19
2023-04-29T08:13:32.200Z,13.22
2023-04-29T08:16:01.495Z,12.88
2023-04-29T08:18:29.305Z,12.90
2023-04-29T08:20:56.962Z,12.78
2023-04-29T08:23:24.852Z,12.93
2023-04-29T08:25:53.510Z,13.24
2023-04-29T08:28:21.204Z,13.13
2023-04-29T08:30:50.079Z,13.13
2023-04-29T08:33:19.101Z,13.03
2023-04-29T08:35:46.741Z,13.17
2023-04-29T08:38:15.142Z,13.24
2023-04-29T08:40:45.641Z,13.31
2023-04-29T08:43:15.166Z,13.37
2023-04-29T08:45:43.592Z,13.42
2023-04-29T08:48:12.509Z,13.50
2023-04-29T08:50:42.696Z,13.52
2023-04-29T08:53:11.762Z,13.69
2023-04-29T08:55:43.491Z,13.83
2023-04-29T08:58:12.415Z,13.78
2023-04-29T09:00:41.351Z,13.58
2023-04-29T09:03:15.918Z,13.70
2023-04-29T09:05:49.755Z,13.77
2023-04-29T09:08:18.072Z,13.52
2023-04-29T09:10:45.807Z,13.80
2023-04-29T09:13:25.417Z,14.03
2023-04-29T09:15:53.394Z,14.21
2023-04-29T09:18:55.087Z,14.66
2023-04-29T09:21:26.079Z,14.51
2023-04-29T09:23:55.778Z,14.50
2023-04-29T09:26:24.322Z,14.34
2023-04-29T09:29:08.477Z,14.44
2023-04-29T09:31:37.310Z,14.35
2023-04-29T09:34:05.143Z,14.42
2023-04-29T09:36:59.023Z,14.27
2023-04-29T09:39:26.889Z,14.33
2023-04-29T09:42:03.044Z,14.25
2023-04-29T09:44:34.517Z,14.27
2023-04-29T09:47:03.881Z,14.46
2023-04-29T09:49:35.616Z,14.22
2023-04-29T09:52:06.584Z,14.32
2023-04-29T09:54:36.301Z,14.44
2023-04-29T09:57:06.133Z,14.88
2023-04-29T09:59:36.003Z,14.56
2023-04-29T10:02:09.287Z,14.70
2023-04-29T10:04:41.469Z,14.85
2023-04-29T10:07:10.748Z,14.84
2023-04-29T10:09:40.882Z,14.82
2023-04-29T10:12:09.143Z,14.65
2023-04-29T10:14:44.451Z,14.65
2023-04-29T10:17:17.187Z,14.68
2023-04-29T10:19:53.546Z,14.92
2023-04-29T10:22:30.472Z,15.07
2023-04-29T10:25:00.165Z,14.29
2023-04-29T10:27:28.930Z,14.28
2023-04-29T10:29:59.498Z,14.04
2023-04-29T10:32:37.008Z,14.08
2023-04-29T10:35:13.689Z,14.39
2023-04-29T10:37:43.197Z,14.13
2023-04-29T10:40:16.090Z,14.04
2023-04-29T10:42:46.273Z,13.90
2023-04-29T10:45:21.150Z,14.17
2023-04-29T10:48:13.963Z,14.21
2023-04-29T10:50:57.648Z,14.20
2023-04-29T10:53:26.851Z,13.74
2023-04-29T10:55:56.034Z,13.63
2023-04-29T10:58:37.437Z,13.52
2023-04-29T11:01:07.816Z,13.84
2023-04-29T11:04:01.655Z,13.86
2023-04-29T11:06:41.507Z,13.58
2023-04-29T11:09:14.251Z,13.57
2023-04-29T11:11:47.295Z,13.56
2023-04-29T11:14:16.429Z,13.48
2023-04-29T11:16:53.614Z,13.83
2023-04-29T11:19:21.737Z,14.07
2023-04-29T11:21:49.438Z,14.19
2023-04-29T11:24:18.371Z,14.00
2023-04-29T11:26:46.402Z,13.66
2023-04-29T11:29:14.570Z,13.77
2023-04-29T11:31:42.297Z,13.78
2023-04-29T11:34:10.398Z,13.76
2023-04-29T11:36:38.032Z,13.92
2023-04-29T11:39:05.837Z,13.87
2023-04-29T11:41:35.785Z,14.38
2023-04-29T11:44:04.939Z,14.49
2023-04-29T11:46:32.959Z,13.92
2023-04-29T11:49:02.001Z,14.26
2023-04-29T11:51:29.883Z,14.79
2023-04-29T11:53:58.888Z,14.39
2023-04-29T11:56:26.585Z,14.00
2023-04-29T11:59:01.318Z,14.04
2023-04-29T12:01:29.181Z,14.47
2023-04-29T12:04:00.994Z,14.39
2023-04-29T12:06:30.050Z,14.27
2023-04-29T12:09:00.559Z,14.08
2023-04-29T12:11:29.015Z,13.83
2023-04-29T12:13:58.426Z,13.75
2023-04-29T12:16:29.343Z,13.69
2023-04-29T12:18:57.445Z,13.64
2023-04-29T12:21:25.300Z,13.45
2023-04-29T12:23:53.116Z,13.28
2023-04-29T12:26:21.963Z,13.47
2023-04-29T12:28:54.921Z,13.54
2023-04-29T12:31:24.285Z,13.51
2023-04-29T12:33:55.311Z,13.36
2023-04-29T12:36:24.337Z,13.13
2023-04-29T12:38:54.533Z,13.09
2023-04-29T12:41:37.617Z,13.09
2023-04-29T12:44:06.619Z,12.78
2023-04-29T12:46:40.520Z,12.71
2023-04-29T12:49:09.026Z,12.85
2023-04-29T12:51:37.596Z,12.69
2023-04-29T12:54:06.934Z,12.47
2023-04-29T12:56:34.694Z,12.51
2023-04-29T12:59:08.619Z,12.64
2023-04-29T13:01:37.941Z,13.07
2023-04-29T13:04:09.091Z,12.90
2023-04-29T13:06:39.413Z,12.74
2023-04-29T13:09:12.186Z,13.14
2023-04-29T13:11:44.588Z,13.52
2023-04-29T13:14:12.158Z,13.00
2023-04-29T13:16:41.302Z,12.89
2023-04-29T13:19:29.529Z,12.64
2023-04-29T13:21:57.792Z,12.75
2023-04-29T13:24:25.359Z,12.29
2023-04-29T13:26:54.207Z,12.31
2023-04-29T13:29:21.937Z,12.62
2023-04-29T13:31:51.517Z,12.92
2023-04-29T13:34:20.394Z,13.52
2023-04-29T13:36:48.075Z,13.72
2023-04-29T13:39:15.679Z,14.14
2023-04-29T13:41:45.878Z,14.42
2023-04-29T13:46:47.492Z,13.69
2023-04-29T13:49:42.288Z,14.12
2023-04-29T13:53:00.820Z,13.46
2023-04-29T13:55:23.215Z,13.09
2023-04-29T13:58:36.094Z,12.91
2023-04-29T14:00:45.269Z,12.47
2023-04-29T14:03:18.595Z,12.43
2023-04-29T14:05:47.828Z,12.60
2023-04-29T14:08:15.493Z,12.52
2023-04-29T14:10:43.456Z,12.47
2023-04-29T14:13:11.087Z,12.52
2023-04-29T14:15:39.085Z,12.67
2023-04-29T14:18:09.453Z,12.93
2023-04-29T14:20:37.073Z,12.77
2023-04-29T14:23:06.056Z,12.62
2023-04-29T14:25:34.007Z,12.63
2023-04-29T14:28:01.891Z,12.74
2023-04-29T14:30:29.557Z,12.43
2023-04-29T14:32:57.635Z,12.15
2023-04-29T14:35:25.428Z,12.08
2023-04-29T14:37:53.031Z,12.09
2023-04-29T14:40:22.195Z,12.02
2023-04-29T14:42:49.755Z,11.80
2023-04-29T14:45:18.090Z,11.78
2023-04-29T14:47:46.717Z,11.87
2023-04-29T14:50:14.526Z,11.97
2023-04-29T14:52:42.136Z,11.95
2023-04-29T14:55:09.996Z,12.05
2023-04-29T14:57:39.158Z,12.05
2023-04-29T15:00:08.909Z,11.75
2023-04-29T15:02:36.596Z,11.68
2023-04-29T15:05:04.889Z,11.74
2023-04-29T15:07:33.024Z,11.71
2023-04-29T15:10:00.874Z,11.92
2023-04-29T15:12:28.541Z,11.99
2023-04-29T15:14:57.550Z,11.85
2023-04-29T15:17:25.460Z,11.51
2023-04-29T15:19:53.107Z,11.52
2023-04-29T15:22:20.703Z,11.51
2023-04-29T15:27:21.407Z,11.63
2023-04-29T15:29:49.022Z,11.71
2023-04-29T15:32:18.167Z,11.71
2023-04-29T15:34:45.833Z,11.85
2023-04-29T15:37:13.492Z,11.62
2023-04-29T15:39:41.315Z,11.63
2023-04-29T15:42:09.440Z,11.66
2023-04-29T15:44:37.034Z,11.53
2023-04-29T15:47:04.927Z,11.48
2023-04-29T15:49:34.104Z,11.45
2023-04-29T15:52:02.026Z,11.42
2023-04-29T15:54:29.658Z,11.23
2023-04-29T15:56:58.134Z,11.35
2023-04-29T15:59:25.745Z,11.19
2023-04-29T16:01:53.411Z,11.23
2023-04-29T16:04:20.998Z,11.13
2023-04-29T16:06:51.090Z,11.13
2023-04-29T16:09:18.912Z,11.08
2023-04-29T16:11:46.971Z,10.94
2023-04-29T16:14:14.538Z,11.00
2023-04-29T16:16:42.759Z,11.07
2023-04-29T16:19:11.860Z,10.99
2023-04-29T16:21:39.827Z,11.03
2023-04-29T16:24:08.858Z,11.10
2023-04-29T16:26:37.340Z,11.05
2023-04-29T16:29:05.190Z,10.99
2023-04-29T16:31:33.041Z,10.94
2023-04-29T16:34:00.699Z,10.78
2023-04-29T16:36:28.325Z,10.72
2023-04-29T16:38:55.982Z,10.77
2023-04-29T16:41:25.997Z,10.63
2023-04-29T16:43:54.027Z,10.64
2023-04-29T16:46:21.893Z,10.44
2023-04-29T16:48:51.309Z,10.31
2023-04-29T16:51:19.177Z,10.24
2023-04-29T16:53:46.779Z,10.25
2023-04-29T16:56:14.438Z,10.15
2023-04-29T16:58:43.473Z,10.05
2023-04-29T17:01:11.243Z,10.00
2023-04-29T17:03:38.878Z,9.99
2023-04-29T17:06:06.683Z,9.98
2023-04-29T17:08:34.799Z,9.94
2023-04-29T17:11:03.694Z,9.88
2023-04-29T17:13:31.318Z,9.76
2023-04-29T17:16:00.583Z,9.75
2023-04-29T17:18:29.458Z,9.76
2023-04-29T17:20:57.168Z,9.78
2023-04-29T17:23:24.855Z,9.73
2023-04-29T17:25:54.554Z,9.70
2023-04-29T17:28:22.383Z,9.59
2023-04-29T17:30:50.266Z,9.51
2023-04-29T17:33:19.955Z,9.44
2023-04-29T17:35:47.547Z,9.41
2023-04-29T17:38:15.165Z,9.19
2023-04-29T17:40:42.820Z,9.19
2023-04-29T17:43:10.571Z,9.00
2023-04-29T17:45:40.889Z,9.00
2023-04-29T17:48:08.655Z,8.88
2023-04-29T17:50:38.811Z,8.89
2023-04-29T17:53:06.809Z,8.87
2023-04-29T17:55:34.459Z,8.79
2023-04-29T17:58:03.754Z,8.73
2023-04-29T18:00:31.481Z,8.65
2023-04-29T18:02:59.287Z,8.65
2023-04-29T18:05:26.950Z,8.59
2023-04-29T18:07:56.049Z,8.54
2023-04-29T18:10:23.752Z,8.45
2023-04-29T18:12:51.372Z,8.41
2023-04-29T18:15:23.554Z,8.24
2023-04-29T18:17:52.132Z,8.20
2023-04-29T18:20:20.587Z,8.14
2023-04-29T18:22:49.662Z,8.09
2023-04-29T18:25:19.132Z,8.04
2023-04-29T18:27:46.755Z,8.00
2023-04-29T18:30:14.677Z,7.94
2023-04-29T18:32:42.431Z,7.90
2023-04-29T18:35:10.760Z,7.91
2023-04-29T18:37:38.489Z,7.82
2023-04-29T18:40:07.700Z,7.76
2023-04-29T18:42:36.724Z,7.73
2023-04-29T18:45:04.937Z,7.63
2023-04-29T18:47:32.696Z,7.59
2023-04-29T18:50:00.353Z,7.53
2023-04-29T18:52:27.976Z,7.48
2023-04-29T18:54:55.602Z,7.40
2023-04-29T18:57:23.247Z,7.34
2023-04-29T18:59:53.389Z,7.30
2023-04-29T19:02:21.239Z,7.29
2023-04-29T19:04:48.953Z,7.25
2023-04-29T19:07:16.568Z,7.14
2023-04-29T19:09:44.184Z,7.14
2023-04-29T19:12:11.777Z,7.04
2023-04-29T19:14:39.907Z,7.04
2023-04-29T19:17:08.939Z,6.98
2023-04-29T19:19:36.731Z,6.97
2023-04-29T19:22:05.255Z,6.90
2023-04-29T19:24:33.856Z,6.84
2023-04-29T19:27:01.781Z,6.82
2023-04-29T19:29:29.401Z,6.79
2023-04-29T19:31:57.025Z,6.78
2023-04-29T19:34:26.320Z,6.74
2023-04-29T19:36:53.974Z,6.72
2023-04-29T19:39:21.697Z,6.66
2023-04-29T19:41:49.346Z,6.60
2023-04-29T19:44:16.998Z,6.57
2023-04-29T19:46:44.619Z,6.58
2023-04-29T19:49:12.859Z,6.53
2023-04-29T19:51:42.420Z,6.48
2023-04-29T19:54:10.227Z,6.46
2023-04-29T19:56:37.857Z,6.42
2023-04-29T19:59:05.721Z,6.40
2023-04-29T20:01:33.983Z,6.32
2023-04-29T20:04:01.702Z,6.36
2023-04-29T20:06:29.885Z,6.32
2023-04-29T20:08:58.988Z,6.27
2023-04-29T20:11:26.939Z,6.25
2023-04-29T20:13:54.550Z,6.24
2023-04-29T20:16:23.311Z,6.20
2023-04-29T20:18:51.154Z,6.18
2023-04-29T20:21:18.778Z,6.11
2023-04-29T20:23:46.407Z,6.07
2023-04-29T20:26:16.493Z,6.07
2023-04-29T20:28:45.405Z,6.03
2023-04-29T20:31:13.010Z,6.00
2023-04-29T20:33:40.946Z,6.00
2023-04-29T20:36:09.053Z,5.95
2023-04-29T20:38:36.847Z,5.90
2023-04-29T20:41:05.794Z,5.86
2023-04-29T20:43:35.085Z,5.86
2023-04-29T20:46:03.273Z,5.89
2023-04-29T20:48:30.932Z,5.81
2023-04-29T20:50:58.557Z,5.75
2023-04-29T20:53:26.293Z,5.74
2023-04-29T20:55:53.870Z,5.71
2023-04-29T20:58:21.680Z,5.77
2023-04-29T21:00:50.983Z,5.73
2023-04-29T21:03:20.865Z,5.69
2023-04-29T21:05:48.582Z,5.64
2023-04-29T21:08:16.186Z,5.62
2023-04-29T21:10:43.830Z,5.57
2023-04-29T21:13:11.825Z,5.55
2023-04-29T21:15:39.509Z,5.53
2023-04-29T21:18:08.530Z,5.52
2023-04-29T21:20:36.368Z,5.51
2023-04-29T21:23:04.076Z,5.49
2023-04-29T21:25:31.777Z,5.42
2023-04-29T21:27:59.492Z,5.40
2023-04-29T21:30:27.162Z,5.36
2023-04-29T21:32:55.577Z,5.35
2023-04-29T21:35:24.836Z,5.27
2023-04-29T21:37:52.557Z,5.29
2023-04-29T21:40:20.570Z,5.29
2023-04-29T21:42:48.766Z,5.25
2023-04-29T21:45:17.349Z,5.25
2023-04-29T21:47:45.481Z,5.16
2023-04-29T21:50:14.331Z,5.16
2023-04-29T21:52:43.530Z,5.14
2023-04-29T21:55:11.423Z,5.10
2023-04-29T22:00:20.582Z,5.12
2023-04-29T22:02:48.595Z,5.04
2023-04-29T22:05:16.456Z,5.02
2023-04-29T22:07:46.067Z,5.03
2023-04-29T22:10:13.833Z,4.99
2023-04-29T22:12:41.525Z,4.98
2023-04-29T22:15:20.677Z,4.98
2023-04-29T22:17:55.485Z,4.99
2023-04-29T22:20:23.257Z,4.96
2023-04-29T22:22:52.426Z,4.94
2023-04-29T22:25:21.876Z,4.97
2023-04-29T22:27:49.915Z,4.95
2023-04-29T22:30:18.001Z,4.88
2023-04-29T22:32:45.833Z,4.89
2023-04-29T22:35:13.549Z,4.85
2023-04-29T22:37:41.349Z,4.85
2023-04-29T22:40:12.731Z,4.84
2023-04-29T22:42:41.874Z,4.80
2023-04-29T22:45:11.703Z,4.78
2023-04-29T22:47:39.758Z,4.75
2023-04-29T22:50:08.641Z,4.79
2023-04-29T22:52:36.258Z,4.75
2023-04-29T22:55:04.166Z,4.77
2023-04-29T22:57:33.214Z,4.75
2023-04-29T23:00:01.079Z,4.72
2023-04-29T23:02:29.306Z,4.73
2023-04-29T23:04:57.697Z,4.72
2023-04-29T23:07:26.614Z,4.73
2023-04-29T23:09:54.483Z,4.74
2023-04-29T23:12:22.336Z,4.74
2023-04-29T23:14:51.658Z,4.73
2023-04-29T23:17:19.412Z,4.69
2023-04-29T23:19:47.027Z,4.65
2023-04-29T23:22:14.666Z,4.66
2023-04-29T23:24:42.316Z,4.64
2023-04-29T23:27:09.940Z,4.61
2023-04-29T23:29:38.849Z,4.59
2023-04-29T23:32:07.800Z,4.58
2023-04-29T23:34:35.594Z,4.55
2023-04-29T23:37:03.292Z,4.53
2023-04-29T23:39:30.980Z,4.53
2023-04-29T23:41:58.637Z,4.50
2023-04-29T23:44:26.190Z,4.48
2023-04-29T23:46:55.108Z,4.50
2023-04-29T23:49:24.129Z,4.52
2023-04-29T23:51:51.789Z,4.53
2023-04-29T23:54:19.386Z,4.49
2023-04-29T23:56:47.304Z,4.45
2023-04-29T23:59:15.240Z,4.46
